Etusivu
METAR-TAF:

METAR-TAF

Lentoasemat :

Ouagadougou, Burkina Faso

Ouagadougoun kansainvälinen lentoasema

Leveyspiiri: 12-21N, Pituuspiiri: 001-31W, korkeus merenpinnasta: 316 m

Tämänhetkinen sää

Tämä raportti tehtiin 39 minuuttia sitten, kello 15.00 UTC
Tuuli 8 kn etelästä/lounaasta
Lämpötila 27°C
Kosteus 84%
Ilmanpaine 1013 hPa
Näkyvyys 10 km tai enemmän
Hajanaisia pilviä 2000 ft:n korkeudessa
Muutamia pilviä 3300 ft:n korkeudessa, Cumulonimbus.
ukkosmyrsky

METAR: DFFD 251500Z 21008KT 9999 TS SCT020 FEW033CB 27/24 Q1013 TEMPO 4000 TSRA

Aika: 15:39 (15:39 UTC)


TAF: puuttuu

Säähavainnot ja -ennusteet yli 4000 lentoasemalta (METAR- ja TAF-raportit).

Käytössä olevat sääasemat on merkitty karttaan keltaisilla ja punaisilla pisteillä.

Aseta hiiri pisteen päälle nähdäksesi sääaseman nimen.

Klikkaa sitten nähdäksesi säähavainnot ja -ennusteet.

Kartan vaihtaminen: klikkaa mustalla rastilla varustettuja vihreitä pisteitä, niin voit zoomata sisään; viivalla varustettua vihreää pistettä, niin voit zoomata ulos tai vihreitä nuolia, niin pääset viereisille kartoille.


METAR-TAF: